N6622M KSNY-KEAR
Flight info
| Callsign | N6622M |
|---|---|
| Flight time | N/A |
| Altitude | 17500 |
| Route | LBF |
| Aircraft | B350/L-SBGRW/S |
Departure
| Time | 2026-04-24 00:24 |
|---|---|
| Airport | Sidney Municipal Airport Lloyd W Carr Field (KSNY) |
Arrival
| Time | N/A |
|---|---|
| Airport | Kearney Regional Airport (KEAR) |
| Time | Latitude | Longitude | Altitude | Speed | Heading |
|---|---|---|---|---|---|
| 2026-04-24 00:17 | 41.10213 | -102.98299 | 4296 ft | 0 kts | 210° |
| 2026-04-24 00:20 | 41.10206 | -102.98310 | 4296 ft | 7 kts | 259° |
| 2026-04-24 00:20 | 41.10227 | -102.98393 | 4299 ft | 9 kts | 246° |
| 2026-04-24 00:20 | 41.10165 | -102.98363 | 4298 ft | 15 kts | 133° |
| 2026-04-24 00:21 | 41.10077 | -102.98247 | 4295 ft | 20 kts | 135° |
| 2026-04-24 00:21 | 41.09972 | -102.98106 | 4296 ft | 22 kts | 134° |
| 2026-04-24 00:21 | 41.09856 | -102.97952 | 4294 ft | 25 kts | 132° |
| 2026-04-24 00:21 | 41.09730 | -102.97783 | 4293 ft | 24 kts | 135° |
| 2026-04-24 00:22 | 41.09624 | -102.97644 | 4289 ft | 19 kts | 132° |
| 2026-04-24 00:22 | 41.09557 | -102.97606 | 4292 ft | 5 kts | 219° |
| 2026-04-24 00:22 | 41.09555 | -102.97607 | 4291 ft | 0 kts | 221° |
| 2026-04-24 00:23 | 41.09541 | -102.97626 | 4290 ft | 10 kts | 228° |
| 2026-04-24 00:23 | 41.09512 | -102.97698 | 4291 ft | 11 kts | 287° |
| 2026-04-24 00:23 | 41.09648 | -102.97877 | 4295 ft | 61 kts | 315° |
| 2026-04-24 00:24 | 41.10104 | -102.98466 | 4316 ft | 117 kts | 319° |
| 2026-04-24 00:24 | 41.10716 | -102.99301 | 4703 ft | 135 kts | 319° |
| 2026-04-24 00:24 | 41.11416 | -103.00235 | 5160 ft | 151 kts | 317° |
| 2026-04-24 00:24 | 41.11811 | -103.01540 | 5758 ft | 167 kts | 265° |
| 2026-04-24 00:25 | 41.11195 | -103.02899 | 6365 ft | 183 kts | 236° |
| 2026-04-24 00:25 | 41.10211 | -103.04031 | 6870 ft | 197 kts | 206° |
| 2026-04-24 00:25 | 41.08818 | -103.04007 | 7376 ft | 213 kts | 159° |
| 2026-04-24 00:25 | 41.07513 | -103.03024 | 7871 ft | 219 kts | 148° |
| 2026-04-24 00:26 | 41.06265 | -103.01830 | 8367 ft | 224 kts | 134° |
| 2026-04-24 00:26 | 41.05636 | -102.99988 | 8884 ft | 223 kts | 95° |
| 2026-04-24 00:26 | 41.05559 | -102.97924 | 9392 ft | 225 kts | 88° |
| 2026-04-24 00:26 | 41.05566 | -102.95842 | 9900 ft | 227 kts | 88° |
| 2026-04-24 00:27 | 41.05585 | -102.93739 | 10379 ft | 229 kts | 88° |
| 2026-04-24 00:27 | 41.05606 | -102.91620 | 10874 ft | 231 kts | 88° |
| 2026-04-24 00:27 | 41.05622 | -102.89486 | 11366 ft | 233 kts | 89° |
| 2026-04-24 00:27 | 41.05637 | -102.87336 | 11873 ft | 234 kts | 89° |
| 2026-04-24 00:28 | 41.05652 | -102.85176 | 12378 ft | 235 kts | 89° |
| 2026-04-24 00:28 | 41.05664 | -102.83005 | 12891 ft | 236 kts | 89° |
| 2026-04-24 00:28 | 41.05672 | -102.80859 | 13410 ft | 236 kts | 90° |
| 2026-04-24 00:28 | 41.05683 | -102.78677 | 13911 ft | 237 kts | 90° |
| 2026-04-24 00:29 | 41.05695 | -102.76484 | 14390 ft | 239 kts | 90° |
| 2026-04-24 00:29 | 41.05707 | -102.74281 | 14870 ft | 240 kts | 90° |
| 2026-04-24 00:29 | 41.05716 | -102.72063 | 15366 ft | 240 kts | 90° |
| 2026-04-24 00:29 | 41.05725 | -102.69845 | 15865 ft | 241 kts | 90° |
| 2026-04-24 00:30 | 41.05734 | -102.67617 | 16343 ft | 244 kts | 90° |
| 2026-04-24 00:30 | 41.05742 | -102.65300 | 16529 ft | 258 kts | 90° |
| 2026-04-24 00:30 | 41.05749 | -102.62871 | 16735 ft | 269 kts | 90° |
| 2026-04-24 00:30 | 41.05757 | -102.60357 | 16939 ft | 277 kts | 90° |
| 2026-04-24 00:31 | 41.05764 | -102.57770 | 17146 ft | 284 kts | 91° |
| 2026-04-24 00:31 | 41.05771 | -102.55129 | 17349 ft | 289 kts | 91° |
| 2026-04-24 00:31 | 41.05778 | -102.52457 | 17391 ft | 299 kts | 90° |
| 2026-04-24 00:31 | 41.05785 | -102.49647 | 17396 ft | 309 kts | 90° |
| 2026-04-24 00:32 | 41.05790 | -102.46770 | 17404 ft | 315 kts | 90° |
| 2026-04-24 00:32 | 41.05796 | -102.43847 | 17404 ft | 319 kts | 90° |
| 2026-04-24 00:32 | 41.05800 | -102.40891 | 17408 ft | 322 kts | 90° |
| 2026-04-24 00:32 | 41.05804 | -102.37918 | 17450 ft | 323 kts | 90° |
| 2026-04-24 00:33 | 41.05810 | -102.34937 | 17484 ft | 324 kts | 90° |
| 2026-04-24 00:33 | 41.05812 | -102.31944 | 17500 ft | 326 kts | 91° |
| 2026-04-24 00:33 | 41.05812 | -102.28938 | 17504 ft | 327 kts | 91° |
| 2026-04-24 00:33 | 41.05812 | -102.25919 | 17508 ft | 328 kts | 91° |
| 2026-04-24 00:34 | 41.05813 | -102.22880 | 17512 ft | 329 kts | 90° |
| 2026-04-24 00:34 | 41.05814 | -102.19846 | 17525 ft | 330 kts | 90° |
| 2026-04-24 00:34 | 41.05813 | -102.17837 | 17530 ft | 330 kts | 91° |
| 2026-04-24 00:34 | 41.05809 | -102.13764 | 17533 ft | 331 kts | 90° |
| 2026-04-24 00:35 | 41.05807 | -102.11746 | 17541 ft | 331 kts | 91° |
| 2026-04-24 00:35 | 41.05804 | -102.08699 | 17550 ft | 331 kts | 91° |
| 2026-04-24 00:35 | 41.05802 | -102.05642 | 17553 ft | 331 kts | 91° |